createdAt,value
2022-10-23T00:00:52.777Z,1.27
2022-10-23T00:03:39.990Z,1.73
2022-10-23T00:06:27.696Z,1.50
2022-10-23T00:09:16.999Z,1.60
2022-10-23T00:12:04.094Z,1.40
2022-10-23T00:14:50.963Z,1.53
2022-10-23T00:17:39.312Z,1.70
2022-10-23T00:20:26.391Z,1.40
2022-10-23T00:23:13.495Z,1.50
2022-10-23T00:26:00.353Z,1.60
2022-10-23T00:28:48.666Z,1.50
2022-10-23T00:31:35.570Z,1.47
2022-10-23T00:34:23.674Z,1.77
2022-10-23T00:37:10.585Z,1.20
2022-10-23T00:39:57.333Z,1.70
2022-10-23T00:42:44.380Z,1.30
2022-10-23T00:45:33.571Z,1.47
2022-10-23T00:48:20.950Z,1.30
2022-10-23T00:51:08.978Z,1.40
2022-10-23T00:54:12.950Z,1.30
2022-10-23T00:57:10.171Z,1.57
2022-10-23T00:59:57.607Z,1.37
2022-10-23T01:02:45.268Z,1.30
2022-10-23T01:05:42.489Z,1.00
2022-10-23T01:08:36.348Z,1.43
2022-10-23T01:11:27.588Z,1.53
2022-10-23T01:14:23.339Z,1.13
2022-10-23T01:17:14.318Z,1.70
2022-10-23T01:20:37.967Z,1.93
2022-10-23T01:23:54.976Z,2.00
2022-10-23T01:26:56.660Z,1.57
2022-10-23T01:29:48.254Z,1.20
2022-10-23T01:32:44.973Z,1.23
2022-10-23T01:35:37.828Z,1.43
2022-10-23T01:38:30.103Z,1.60
2022-10-23T01:41:20.991Z,1.50
2022-10-23T01:44:12.922Z,1.50
2022-10-23T01:47:02.634Z,1.30
2022-10-23T01:49:52.655Z,1.10
2022-10-23T01:52:39.315Z,1.17
2022-10-23T01:55:27.259Z,1.40
2022-10-23T01:58:16.528Z,2.13
2022-10-23T02:01:06.392Z,1.37
2022-10-23T02:03:56.747Z,1.60
2022-10-23T02:06:43.869Z,1.17
2022-10-23T02:09:31.153Z,1.23
2022-10-23T02:15:26.990Z,1.20
2022-10-23T02:18:31.711Z,1.30
2022-10-23T02:21:41.339Z,0.93
2022-10-23T02:24:32.829Z,1.27
2022-10-23T02:27:22.569Z,1.17
2022-10-23T02:30:15.548Z,0.97
2022-10-23T02:33:09.184Z,1.20
2022-10-23T02:35:56.085Z,1.27
2022-10-23T02:38:45.593Z,1.20
2022-10-23T02:41:43.263Z,1.17
2022-10-23T02:44:44.881Z,1.23
2022-10-23T02:47:52.824Z,1.23
2022-10-23T02:50:49.801Z,1.37
2022-10-23T02:53:42.786Z,1.00
2022-10-23T02:56:38.624Z,1.00
2022-10-23T02:59:33.528Z,1.03
2022-10-23T03:02:25.578Z,0.97
2022-10-23T03:05:17.200Z,1.30
2022-10-23T03:08:05.068Z,1.10
2022-10-23T03:11:11.974Z,1.03
2022-10-23T03:14:00.356Z,1.17
2022-10-23T03:16:47.385Z,1.10
2022-10-23T03:19:34.473Z,1.13
2022-10-23T03:22:22.548Z,1.10
2022-10-23T03:25:10.522Z,0.90
2022-10-23T03:27:57.210Z,1.13
2022-10-23T03:30:45.699Z,0.90
2022-10-23T03:33:33.056Z,1.10
2022-10-23T03:36:19.728Z,1.00
2022-10-23T03:39:07.029Z,1.00
2022-10-23T03:41:53.963Z,1.10
2022-10-23T03:44:41.054Z,1.30
2022-10-23T03:47:30.539Z,1.47
2022-10-23T03:50:17.528Z,1.53
2022-10-23T03:53:13.813Z,2.50
2022-10-23T03:56:23.883Z,2.30
2022-10-23T03:59:34.845Z,2.03
2022-10-23T04:06:31.882Z,3.03
2022-10-23T04:09:48.696Z,1.90
2022-10-23T04:16:55.948Z,3.60
2022-10-23T04:20:26.889Z,1.93
2022-10-23T04:23:32.011Z,2.03
2022-10-23T04:27:18.563Z,3.13
2022-10-23T04:34:24.629Z,3.10
2022-10-23T04:37:26.486Z,2.97
2022-10-23T04:40:45.959Z,2.33
2022-10-23T04:44:11.030Z,2.77
2022-10-23T05:04:26.111Z,1.60
2022-10-23T05:07:46.237Z,1.30
2022-10-23T05:11:19.265Z,1.60
2022-10-23T05:18:21.319Z,1.90
2022-10-23T05:21:53.030Z,1.80
2022-10-23T05:29:11.716Z,0.90
2022-10-23T05:32:48.239Z,0.93
2022-10-23T05:36:06.441Z,3.90
2022-10-23T05:59:30.762Z,1.27
2022-10-23T06:06:46.272Z,1.40
2022-10-23T06:18:01.861Z,1.10
2022-10-23T06:21:22.400Z,1.20
2022-10-23T06:28:36.339Z,1.30
2022-10-23T06:32:19.234Z,1.40
2022-10-23T06:35:41.249Z,1.00
2022-10-23T06:39:31.163Z,1.30
2022-10-23T06:42:42.636Z,1.27
2022-10-23T06:49:29.671Z,1.30
2022-10-23T07:00:01.038Z,1.20
2022-10-23T07:03:05.615Z,1.40
2022-10-23T07:09:55.102Z,1.90
2022-10-23T07:12:42.278Z,2.00
2022-10-23T07:15:29.345Z,1.57
2022-10-23T07:18:19.542Z,1.40
2022-10-23T07:21:06.959Z,1.17
2022-10-23T07:23:53.618Z,1.60
2022-10-23T07:26:41.567Z,1.40
2022-10-23T07:29:28.683Z,1.00
2022-10-23T07:32:15.920Z,0.93
2022-10-23T07:35:04.091Z,1.20
2022-10-23T07:37:51.266Z,1.20
2022-10-23T07:40:38.296Z,1.23
2022-10-23T07:43:26.196Z,0.80
2022-10-23T07:46:13.392Z,0.60
2022-10-23T07:49:00.474Z,0.63
2022-10-23T07:51:51.274Z,0.43
2022-10-23T07:54:39.071Z,0.52
2022-10-23T07:57:26.098Z,0.50
2022-10-23T08:00:14.280Z,0.50
2022-10-23T08:03:01.198Z,0.60
2022-10-23T08:05:48.668Z,0.40
2022-10-23T08:08:37.223Z,0.60
2022-10-23T08:11:27.155Z,0.38
2022-10-23T08:14:13.994Z,0.70
2022-10-23T08:19:49.430Z,0.63
2022-10-23T08:22:37.323Z,0.73
2022-10-23T08:25:26.206Z,0.40
2022-10-23T08:28:13.194Z,0.82
2022-10-23T08:31:00.467Z,0.50
2022-10-23T08:36:36.488Z,0.70
2022-10-23T08:39:23.043Z,0.47
2022-10-23T08:42:21.005Z,0.68
2022-10-23T08:45:13.588Z,0.50
2022-10-23T08:48:06.117Z,0.40
2022-10-23T08:50:59.361Z,0.70
2022-10-23T08:53:53.851Z,0.40
2022-10-23T08:56:43.969Z,0.70
2022-10-23T08:59:39.747Z,0.47
2022-10-23T09:02:29.110Z,0.35
2022-10-23T09:05:20.787Z,0.45
2022-10-23T09:08:25.773Z,0.60
2022-10-23T09:11:19.696Z,0.50
2022-10-23T09:14:46.585Z,0.43
2022-10-23T09:17:35.825Z,0.50
2022-10-23T09:20:25.576Z,0.50
2022-10-23T09:23:17.969Z,0.43
2022-10-23T09:26:13.239Z,0.60
2022-10-23T09:29:18.912Z,0.60
2022-10-23T09:32:08.809Z,0.82
2022-10-23T09:34:56.871Z,0.82
2022-10-23T09:37:48.915Z,0.70
2022-10-23T09:40:43.017Z,0.63
2022-10-23T09:43:30.385Z,0.77
2022-10-23T09:46:17.291Z,0.63
2022-10-23T09:49:06.043Z,0.50
2022-10-23T09:52:01.518Z,0.70
2022-10-23T09:54:52.203Z,0.55
2022-10-23T09:57:44.050Z,0.73
2022-10-23T10:00:31.129Z,0.50
2022-10-23T10:03:23.943Z,0.75
2022-10-23T10:06:24.650Z,0.57
2022-10-23T10:09:15.951Z,0.55
2022-10-23T10:12:18.413Z,0.80
2022-10-23T10:15:16.183Z,0.90
2022-10-23T10:18:14.176Z,0.60
2022-10-23T10:21:12.649Z,0.50
2022-10-23T10:24:06.408Z,0.70
2022-10-23T10:26:59.566Z,0.70
2022-10-23T10:30:01.416Z,0.70
2022-10-23T10:32:55.540Z,0.85
2022-10-23T10:35:50.669Z,0.60
2022-10-23T10:38:46.093Z,0.70
2022-10-23T10:41:51.389Z,0.70
2022-10-23T10:44:54.651Z,0.65
2022-10-23T10:47:51.739Z,1.00
2022-10-23T10:50:46.647Z,0.85
2022-10-23T10:53:47.334Z,0.82
2022-10-23T10:56:38.902Z,0.88
2022-10-23T10:59:30.089Z,0.55
2022-10-23T11:02:27.317Z,0.65
2022-10-23T11:05:23.377Z,0.60
2022-10-23T11:08:15.942Z,0.70
2022-10-23T11:11:07.882Z,0.60
2022-10-23T11:13:54.956Z,0.70
2022-10-23T11:16:49.129Z,0.73
2022-10-23T11:19:42.623Z,0.50
2022-10-23T11:22:36.919Z,0.77
2022-10-23T11:25:49.758Z,0.70
2022-10-23T11:28:53.149Z,0.68
2022-10-23T11:31:47.219Z,0.50
2022-10-23T11:34:51.876Z,0.60
2022-10-23T11:37:38.904Z,0.80
2022-10-23T11:40:26.609Z,0.70
2022-10-23T11:43:13.428Z,0.77
2022-10-23T11:46:00.418Z,0.65
2022-10-23T11:48:48.732Z,0.70
2022-10-23T11:51:37.523Z,0.70
2022-10-23T11:54:27.274Z,0.65
2022-10-23T11:57:15.595Z,0.60
2022-10-23T12:00:02.208Z,0.52
2022-10-23T12:02:58.387Z,0.57
2022-10-23T12:05:48.356Z,1.10
2022-10-23T12:08:39.484Z,1.15
2022-10-23T12:11:42.374Z,1.48
2022-10-23T12:14:31.599Z,1.75
2022-10-23T12:17:40.612Z,1.30
2022-10-23T12:20:36.361Z,1.13
2022-10-23T12:24:05.882Z,1.17
2022-10-23T12:27:04.201Z,1.10
2022-10-23T12:30:22.887Z,1.23
2022-10-23T12:33:20.817Z,1.00
2022-10-23T12:36:29.812Z,0.82
2022-10-23T12:39:29.160Z,1.13
2022-10-23T12:42:21.970Z,0.70
2022-10-23T12:45:19.757Z,0.90
2022-10-23T12:48:07.296Z,1.13
2022-10-23T12:50:56.448Z,1.38
2022-10-23T12:53:49.455Z,1.50
2022-10-23T12:56:39.122Z,0.85
2022-10-23T12:59:28.225Z,0.82
2022-10-23T13:02:23.282Z,1.58
2022-10-23T13:05:15.147Z,0.88
2022-10-23T13:08:03.811Z,1.08
2022-10-23T13:10:51.415Z,0.75
2022-10-23T13:13:42.417Z,1.00
2022-10-23T13:16:29.551Z,0.77
2022-10-23T13:19:27.603Z,0.70
2022-10-23T13:22:20.221Z,0.90
2022-10-23T13:25:22.684Z,1.15
2022-10-23T13:28:24.940Z,0.90
2022-10-23T13:31:32.317Z,1.00
2022-10-23T13:34:24.126Z,0.98
2022-10-23T13:37:28.429Z,1.08
2022-10-23T13:40:25.023Z,0.88
2022-10-23T13:43:18.945Z,0.90
2022-10-23T13:46:05.661Z,0.68
2022-10-23T13:48:54.214Z,0.88
2022-10-23T13:51:43.928Z,1.15
2022-10-23T13:54:31.249Z,1.00
2022-10-23T13:57:18.260Z,0.88
2022-10-23T14:00:05.873Z,1.35
2022-10-23T14:05:46.665Z,1.20
2022-10-23T14:08:33.678Z,1.20
2022-10-23T14:11:22.401Z,1.20
2022-10-23T14:14:10.356Z,1.23
2022-10-23T14:16:57.059Z,1.00
2022-10-23T14:19:45.989Z,1.27
2022-10-23T14:22:33.980Z,1.10
2022-10-23T14:25:21.016Z,1.23
2022-10-23T14:28:08.087Z,1.27
2022-10-23T14:30:54.955Z,1.20
2022-10-23T14:33:42.437Z,1.00
2022-10-23T14:36:38.803Z,1.10
2022-10-23T14:39:38.880Z,1.35
2022-10-23T14:42:29.408Z,1.05
2022-10-23T14:45:20.279Z,1.33
2022-10-23T14:48:07.463Z,1.33
2022-10-23T14:50:54.172Z,1.65
2022-10-23T14:53:41.214Z,1.30
2022-10-23T14:56:30.387Z,1.48
2022-10-23T14:59:17.272Z,1.38
2022-10-23T15:02:04.284Z,1.60
2022-10-23T15:04:51.159Z,1.95
2022-10-23T15:07:37.753Z,1.30
2022-10-23T15:10:24.686Z,1.77
2022-10-23T15:13:13.264Z,2.10
2022-10-23T15:16:04.889Z,1.30
2022-10-23T15:18:51.936Z,1.50
2022-10-23T15:21:39.879Z,1.45
2022-10-23T15:24:27.191Z,1.75
2022-10-23T15:27:14.590Z,1.60
2022-10-23T15:30:02.812Z,2.55
2022-10-23T15:32:50.766Z,1.40
2022-10-23T15:35:37.616Z,1.60
2022-10-23T15:38:25.426Z,1.70
2022-10-23T15:41:17.783Z,1.70
2022-10-23T15:44:06.403Z,1.65
2022-10-23T15:46:57.283Z,1.77
2022-10-23T15:49:44.432Z,1.63
2022-10-23T15:52:31.379Z,1.75
2022-10-23T15:55:18.541Z,2.05
2022-10-23T15:58:06.018Z,1.45
2022-10-23T16:00:53.061Z,2.05
2022-10-23T16:03:41.715Z,1.52
2022-10-23T16:06:28.572Z,1.73
2022-10-23T16:09:16.239Z,1.90
2022-10-23T16:12:03.094Z,2.05
2022-10-23T16:15:17.693Z,1.80
2022-10-23T16:18:06.739Z,2.22
2022-10-23T16:20:55.667Z,1.98
2022-10-23T16:23:42.842Z,1.85
2022-10-23T16:26:30.940Z,1.58
2022-10-23T16:29:17.808Z,1.90
2022-10-23T16:32:04.945Z,1.80
2022-10-23T16:34:53.361Z,1.58
2022-10-23T16:37:41.803Z,1.92
2022-10-23T16:40:28.806Z,1.60
2022-10-23T16:43:15.973Z,2.03
2022-10-23T16:46:06.660Z,1.83
2022-10-23T16:48:54.283Z,2.55
2022-10-23T16:51:41.408Z,1.80
2022-10-23T16:54:29.773Z,2.20
2022-10-23T16:57:16.903Z,1.67
2022-10-23T17:00:03.708Z,1.88
2022-10-23T17:02:55.132Z,2.08
2022-10-23T17:05:42.244Z,1.80
2022-10-23T17:08:30.880Z,1.90
2022-10-23T17:11:20.764Z,2.40
2022-10-23T17:14:10.637Z,2.35
2022-10-23T17:16:59.470Z,2.30
2022-10-23T17:19:47.042Z,2.58
2022-10-23T17:22:35.526Z,2.10
2022-10-23T17:25:22.474Z,2.00
2022-10-23T17:28:10.628Z,2.03
2022-10-23T17:30:57.511Z,1.98
2022-10-23T17:33:45.088Z,1.95
2022-10-23T17:36:36.155Z,1.90
2022-10-23T17:39:25.321Z,2.05
2022-10-23T17:42:12.450Z,1.40
2022-10-23T17:45:00.737Z,2.20
2022-10-23T17:47:49.186Z,2.20
2022-10-23T17:50:36.237Z,1.90
2022-10-23T17:53:23.194Z,2.28
2022-10-23T17:56:12.359Z,3.10
2022-10-23T17:59:02.686Z,2.08
2022-10-23T18:01:51.061Z,1.70
2022-10-23T18:04:38.202Z,1.83
2022-10-23T18:07:26.613Z,2.33
2022-10-23T18:10:13.896Z,2.20
2022-10-23T18:13:00.566Z,2.00
2022-10-23T18:15:47.492Z,1.58
2022-10-23T18:18:36.158Z,1.90
2022-10-23T18:21:24.863Z,1.92
2022-10-23T18:24:12.281Z,1.70
2022-10-23T18:26:59.297Z,1.48
2022-10-23T18:29:47.445Z,1.48
2022-10-23T18:32:34.387Z,1.40
2022-10-23T18:35:22.304Z,1.25
2022-10-23T18:38:10.088Z,1.20
2022-10-23T18:40:58.013Z,1.08
2022-10-23T18:43:44.868Z,1.38
2022-10-23T18:46:32.176Z,1.17
2022-10-23T18:49:20.063Z,0.98
2022-10-23T18:52:08.244Z,1.33
2022-10-23T18:54:55.148Z,1.48
2022-10-23T18:57:42.951Z,1.10
2022-10-23T19:00:29.898Z,1.17
2022-10-23T19:03:17.599Z,1.10
2022-10-23T19:06:06.774Z,1.23
2022-10-23T19:08:55.367Z,0.80
2022-10-23T19:11:43.073Z,0.95
2022-10-23T19:14:30.137Z,0.68
2022-10-23T19:17:19.913Z,1.10
2022-10-23T19:20:11.658Z,1.23
2022-10-23T19:23:01.004Z,0.95
2022-10-23T19:25:49.263Z,1.10
2022-10-23T19:28:37.905Z,0.70
2022-10-23T19:31:26.508Z,1.13
2022-10-23T19:34:13.115Z,1.38
2022-10-23T19:37:00.331Z,1.25
2022-10-23T19:39:47.649Z,1.27
2022-10-23T19:42:37.396Z,1.08
2022-10-23T19:45:24.405Z,1.10
2022-10-23T19:48:11.630Z,1.23
2022-10-23T19:50:59.297Z,0.90
2022-10-23T19:53:46.273Z,0.80
2022-10-23T19:56:33.243Z,1.38
2022-10-23T19:59:21.529Z,1.20
2022-10-23T20:02:08.733Z,1.10
2022-10-23T20:04:55.749Z,1.10
2022-10-23T20:07:42.840Z,1.00
2022-10-23T20:10:30.158Z,1.20
2022-10-23T20:13:20.711Z,1.10
2022-10-23T20:16:29.474Z,1.33
2022-10-23T20:19:44.740Z,0.98
2022-10-23T20:22:34.991Z,0.77
2022-10-23T20:25:21.488Z,0.90
2022-10-23T20:28:10.360Z,0.70
2022-10-23T20:30:59.848Z,0.80
2022-10-23T20:33:48.592Z,0.60
2022-10-23T20:36:38.572Z,0.73
2022-10-23T20:39:29.709Z,0.52
2022-10-23T20:42:16.528Z,0.60
2022-10-23T20:45:05.753Z,0.60
2022-10-23T20:47:52.530Z,0.55
2022-10-23T20:50:40.902Z,1.02
2022-10-23T20:53:27.688Z,0.82
2022-10-23T20:56:17.538Z,0.82
2022-10-23T20:59:06.618Z,1.00
2022-10-23T21:01:55.360Z,0.97
2022-10-23T21:04:42.442Z,0.77
2022-10-23T21:07:30.913Z,1.10
2022-10-23T21:10:17.913Z,0.80
2022-10-23T21:13:05.101Z,1.35
2022-10-23T21:15:51.888Z,0.90
2022-10-23T21:18:46.017Z,1.10
2022-10-23T21:21:34.121Z,1.15
2022-10-23T21:24:22.556Z,1.05
2022-10-23T21:27:09.434Z,0.77
2022-10-23T21:29:56.283Z,1.08
2022-10-23T21:32:43.144Z,1.08
2022-10-23T21:35:30.197Z,1.00
2022-10-23T21:38:16.930Z,0.90
2022-10-23T21:41:09.577Z,1.30
2022-10-23T21:43:58.063Z,0.88
2022-10-23T21:46:45.735Z,1.13
2022-10-23T21:49:32.936Z,1.00
2022-10-23T21:52:19.908Z,1.10
2022-10-23T21:55:07.237Z,1.27
2022-10-23T21:57:55.653Z,1.17
2022-10-23T22:00:42.730Z,1.07
2022-10-23T22:03:29.515Z,0.80
2022-10-23T22:06:18.375Z,1.07
2022-10-23T22:09:06.283Z,1.13
2022-10-23T22:11:54.405Z,1.40
2022-10-23T22:14:42.647Z,1.20
2022-10-23T22:17:29.922Z,1.43
2022-10-23T22:20:16.887Z,0.93
2022-10-23T22:23:03.568Z,1.10
2022-10-23T22:25:50.231Z,1.07
2022-10-23T22:28:37.050Z,1.43
2022-10-23T22:31:30.312Z,1.48
2022-10-23T22:34:27.273Z,0.80
2022-10-23T22:37:27.153Z,1.33
2022-10-23T22:40:14.245Z,1.60
2022-10-23T22:43:01.640Z,1.47
2022-10-23T22:45:48.611Z,1.50
2022-10-23T22:48:37.019Z,1.45
2022-10-23T22:51:26.006Z,2.10
2022-10-23T22:54:12.939Z,1.73
2022-10-23T22:57:00.102Z,1.33
2022-10-23T22:59:47.168Z,1.13
2022-10-23T23:02:34.378Z,2.00
2022-10-23T23:05:22.468Z,1.40
2022-10-23T23:08:09.149Z,1.40
2022-10-23T23:10:57.144Z,1.35
2022-10-23T23:13:44.453Z,1.55
2022-10-23T23:16:33.146Z,1.63
2022-10-23T23:19:19.804Z,1.70
2022-10-23T23:22:07.833Z,1.60
2022-10-23T23:24:55.030Z,1.47
2022-10-23T23:27:41.779Z,1.52
2022-10-23T23:30:28.648Z,2.00
2022-10-23T23:33:19.047Z,1.47
2022-10-23T23:36:08.412Z,1.40
2022-10-23T23:38:57.795Z,1.80
2022-10-23T23:41:45.466Z,1.63
2022-10-23T23:44:32.431Z,1.98
2022-10-23T23:47:19.123Z,1.60
2022-10-23T23:50:08.627Z,1.30
2022-10-23T23:52:56.431Z,1.70
2022-10-23T23:55:44.551Z,1.80
2022-10-23T23:58:31.510Z,1.50
